Time;durP1;ratioP1;P1;durP2;ratioP2;P2;SDS_P1;SDS_P2;PMS_P1;PMS_P2;Temp;Humidity;BMP_temperature;BMP_pressure;BME280_temperature;BME280_humidity;BME280_pressure;Samples;Min_cycle;Max_cycle;Signal;HPM_P1;HPM_P2
2021/11/28 00:00:23;;;;;;;3.70;1.80;;;;;;;18.96;38.82;99298.66;5095869;28;19927;-69
2021/11/28 00:02:49;;;;;;;3.92;1.77;;;;;;;18.94;39.05;99303.28;5095627;28;20020;-68
2021/11/28 00:05:15;;;;;;;3.45;2.00;;;;;;;18.91;38.88;99299.16;5094446;28;20503;-69
2021/11/28 00:13:06;;;;;;;4.05;1.88;;;;;;;18.84;38.99;99300.81;5094832;28;20043;-68
2021/11/28 00:15:32;;;;;;;2.95;1.70;;;;;;;18.82;39.31;99305.41;5094638;28;20066;-69
2021/11/28 00:17:57;;;;;;;3.60;1.92;;;;;;;18.82;39.18;99313.34;5094931;28;20028;-69
2021/11/28 00:20:23;;;;;;;4.80;2.03;;;;;;;18.78;39.04;99304.91;5094723;28;20048;-68
2021/11/28 00:22:48;;;;;;;3.25;2.00;;;;;;;18.76;39.04;99308.72;5095157;28;20016;-68
2021/11/28 00:25:16;;;;;;;3.45;1.90;;;;;;;18.74;38.97;99300.13;5095022;28;20058;-68
2021/11/28 00:27:42;;;;;;;3.53;2.00;;;;;;;18.74;38.79;99310.69;5093912;28;20058;-69
2021/11/28 00:30:13;;;;;;;2.83;1.70;;;;;;;18.70;38.85;99302.28;5094907;28;20047;-69
2021/11/28 00:32:39;;;;;;;3.67;2.00;;;;;;;18.70;38.88;99310.19;5094436;28;20031;-68
2021/11/28 00:35:05;;;;;;;3.60;2.13;;;;;;;18.67;39.27;99306.09;5094173;28;20536;-69
2021/11/28 00:37:30;;;;;;;3.13;1.88;;;;;;;18.65;39.13;99309.88;5094654;28;20024;-68
2021/11/28 00:39:56;;;;;;;3.55;1.98;;;;;;;18.64;39.05;99310.84;5093988;28;20494;-69
2021/11/28 00:42:21;;;;;;;4.40;2.22;;;;;;;18.62;39.10;99312.84;5094689;28;20028;-68
2021/11/28 00:44:46;;;;;;;3.78;2.10;;;;;;;18.62;39.14;99315.47;5094438;28;20042;-67
2021/11/28 00:47:12;;;;;;;4.55;2.15;;;;;;;18.59;39.06;99307.88;5093720;28;20646;-68
2021/11/28 00:49:38;;;;;;;4.45;2.53;;;;;;;18.58;39.16;99312.34;5093932;28;20081;-69
2021/11/28 00:52:05;;;;;;;3.63;2.20;;;;;;;18.57;39.25;99317.78;5094734;28;20043;-68
2021/11/28 00:54:31;;;;;;;3.58;2.00;;;;;;;18.55;39.03;99317.09;5093389;28;20054;-68
2021/11/28 00:56:57;;;;;;;3.88;2.15;;;;;;;18.55;38.76;99327.66;5094428;28;20016;-67
2021/11/28 00:59:22;;;;;;;4.22;1.95;;;;;;;18.52;39.05;99326.19;5094492;28;20024;-69
2021/11/28 01:01:48;;;;;;;4.22;2.30;;;;;;;18.47;38.81;99317.94;5093287;28;20486;-68
2021/11/28 01:04:14;;;;;;;4.25;2.20;;;;;;;18.50;39.15;99317.63;5094303;28;20042;-69
2021/11/28 01:06:39;;;;;;;4.97;2.20;;;;;;;18.49;38.75;99329.97;5094026;28;20202;-69
2021/11/28 01:09:08;;;;;;;5.28;2.53;;;;;;;18.47;38.88;99331.13;5093384;28;20016;-69
2021/11/28 01:11:33;;;;;;;3.65;2.08;;;;;;;18.46;39.00;99338.22;5093673;28;20460;-68
2021/11/28 01:13:59;;;;;;;4.40;2.50;;;;;;;18.45;39.18;99338.38;5094308;28;20134;-69
2021/11/28 01:16:25;;;;;;;3.60;2.17;;;;;;;18.44;39.01;99345.47;5093005;28;20050;-68
2021/11/28 01:18:51;;;;;;;4.32;2.35;;;;;;;18.42;38.94;99352.72;5094286;28;20063;-68
2021/11/28 01:21:19;;;;;;;3.67;2.40;;;;;;;18.41;38.91;99358.16;5094221;28;20364;-68
2021/11/28 01:23:44;;;;;;;4.18;2.30;;;;;;;18.39;38.96;99358.31;5092895;28;20024;-70
2021/11/28 01:26:10;;;;;;;4.40;2.33;;;;;;;18.38;39.03;99361.94;5093985;28;20034;-68
2021/11/28 01:28:36;;;;;;;4.30;2.40;;;;;;;18.37;38.76;99364.72;5093621;28;20032;-69
2021/11/28 01:31:01;;;;;;;4.45;2.53;;;;;;;18.36;38.66;99371.00;5092781;28;20493;-69
2021/11/28 01:33:27;;;;;;;3.90;2.50;;;;;;;18.34;38.99;99376.44;5093196;28;20083;-69
2021/11/28 01:35:52;;;;;;;4.10;2.30;;;;;;;18.31;39.05;99372.31;5093940;28;20046;-69
2021/11/28 01:38:21;;;;;;;3.95;2.35;;;;;;;18.31;38.98;99371.50;5093047;28;20075;-70
2021/11/28 01:40:50;;;;;;;3.83;2.13;;;;;;;18.30;39.00;99373.28;5093537;28;20047;-71
2021/11/28 01:43:17;;;;;;;4.22;2.60;;;;;;;18.29;38.71;99376.09;5092760;28;20020;-69
2021/11/28 01:45:45;;;;;;;4.30;2.63;;;;;;;18.29;38.67;99384.00;5093660;28;20020;-68
2021/11/28 01:48:13;;;;;;;4.43;2.30;;;;;;;18.27;39.04;99389.44;5093587;28;20020;-69
2021/11/28 01:50:41;;;;;;;5.80;2.65;;;;;;;18.25;39.09;99398.50;5092844;28;20040;-70
2021/11/28 01:53:10;;;;;;;4.60;2.58;;;;;;;18.26;39.08;99408.06;5093693;28;20024;-68
2021/11/28 01:55:36;;;;;;;4.25;2.38;;;;;;;18.24;38.57;99408.22;5093052;28;20447;-69
2021/11/28 01:58:05;;;;;;;5.03;2.60;;;;;;;18.23;38.59;99401.31;5092637;28;20107;-68
2021/11/28 02:00:40;;;;;;;4.32;2.47;;;;;;;18.23;39.06;99408.38;5093178;28;20066;-68
2021/11/28 02:03:06;;;;;;;4.40;2.28;;;;;;;18.22;38.91;99406.75;5093462;28;20123;-68
2021/11/28 02:05:33;;;;;;;4.07;2.22;;;;;;;18.21;38.67;99402.44;5092078;28;20048;-69
2021/11/28 02:07:59;;;;;;;4.13;2.30;;;;;;;18.18;39.13;99398.31;5093293;28;20097;-68
2021/11/28 02:10:24;;;;;;;4.90;2.35;;;;;;;18.18;38.87;99408.84;5092813;28;20024;-68
2021/11/28 02:12:50;;;;;;;4.32;2.35;;;;;;;18.17;38.81;99407.22;5092293;28;20062;-68
2021/11/28 02:15:17;;;;;;;4.07;2.17;;;;;;;18.18;38.95;99405.41;5092937;28;20391;-68
2021/11/28 02:17:44;;;;;;;4.05;2.35;;;;;;;18.18;38.87;99408.84;5092752;28;20375;-69
2021/11/28 02:20:10;;;;;;;4.78;2.60;;;;;;;18.20;38.97;99400.78;5092220;28;20020;-69
2021/11/28 02:22:40;;;;;;;4.03;2.13;;;;;;;18.21;38.90;99400.63;5092441;28;20547;-67
2021/11/28 02:25:08;;;;;;;4.35;2.25;;;;;;;18.22;38.99;99402.28;5092833;28;20024;-68
2021/11/28 02:27:33;;;;;;;3.75;1.98;;;;;;;18.23;38.65;99408.38;5091839;28;20028;-69
2021/11/28 02:29:58;;;;;;;4.53;2.50;;;;;;;18.23;38.95;99406.59;5093218;28;20032;-69
2021/11/28 02:32:23;;;;;;;5.95;2.50;;;;;;;18.23;38.77;99413.66;5092229;28;20090;-69
2021/11/28 02:34:49;;;;;;;4.53;2.58;;;;;;;18.25;38.62;99414.34;5092913;28;20119;-69
2021/11/28 02:37:15;;;;;;;4.38;2.58;;;;;;;18.24;38.74;99408.22;5092869;28;20040;-69
2021/11/28 02:39:40;;;;;;;4.35;2.40;;;;;;;18.25;38.44;99412.50;5091832;28;20107;-67
2021/11/28 02:42:06;;;;;;;4.22;2.35;;;;;;;18.26;38.54;99410.69;5098617;28;20406;-69
2021/11/28 02:44:32;;;;;;;4.10;2.40;;;;;;;18.25;38.62;99417.78;5106378;28;20460;-68
2021/11/28 02:46:58;;;;;;;5.28;2.42;;;;;;;18.25;38.71;99428.34;5107029;28;20044;-68
2021/11/28 02:49:25;;;;;;;4.53;2.40;;;;;;;18.25;38.68;99430.97;5106354;28;20024;-68
2021/11/28 02:51:50;;;;;;;3.95;2.33;;;;;;;18.25;38.42;99430.97;5108089;28;20036;-68
2021/11/28 02:54:15;;;;;;;4.68;2.30;;;;;;;18.24;38.64;99431.13;5108415;28;20042;-68
2021/11/28 02:56:42;;;;;;;4.10;2.10;;;;;;;18.25;38.72;99440.69;5108481;28;20020;-69
2021/11/28 02:59:07;;;;;;;4.05;2.40;;;;;;;18.24;38.68;99436.41;5102989;28;20028;-69
2021/11/28 03:01:33;;;;;;;4.30;2.35;;;;;;;18.25;38.63;99430.97;5098623;28;20028;-69
2021/11/28 03:03:58;;;;;;;4.20;2.20;;;;;;;18.24;38.43;99428.50;5097880;28;20024;-68
2021/11/28 03:06:23;;;;;;;4.47;2.50;;;;;;;18.24;38.44;99431.13;5097322;28;20048;-68
2021/11/28 03:08:49;;;;;;;4.10;2.60;;;;;;;18.23;38.64;99427.69;5092629;28;20036;-68
2021/11/28 03:11:15;;;;;;;4.10;2.38;;;;;;;18.23;38.65;99435.59;5093559;28;20024;-68
2021/11/28 03:13:44;;;;;;;3.72;2.33;;;;;;;18.21;38.85;99429.63;5094026;28;20028;-70
2021/11/28 03:16:15;;;;;;;4.18;2.22;;;;;;;18.23;38.51;99435.59;5093042;28;20090;-69
2021/11/28 03:18:41;;;;;;;4.30;2.63;;;;;;;18.23;38.93;99434.75;5092528;28;20024;-69
2021/11/28 03:21:32;;;;;;;4.22;2.35;;;;;;;18.25;38.69;99443.34;5092860;28;20107;-69
2021/11/28 03:24:00;;;;;;;5.05;2.60;;;;;;;18.25;38.74;99440.69;5091883;28;20051;-69
2021/11/28 03:26:38;;;;;;;4.55;2.67;;;;;;;18.25;38.46;99441.53;5092102;28;20047;-68
2021/11/28 03:29:08;;;;;;;5.32;2.45;;;;;;;18.26;38.61;99447.59;5091693;28;20020;-69
2021/11/28 03:31:37;;;;;;;4.90;2.70;;;;;;;18.26;38.38;99443.19;5092025;28;20031;-68
2021/11/28 03:34:04;;;;;;;5.10;3.08;;;;;;;18.24;38.46;99434.59;5092285;28;20038;-69
2021/11/28 03:36:30;;;;;;;4.93;2.90;;;;;;;18.25;38.25;99441.53;5091250;28;20056;-68
2021/11/28 03:38:56;;;;;;;5.10;3.00;;;;;;;18.25;38.12;99445.97;5092312;28;20048;-69
2021/11/28 03:41:26;;;;;;;5.60;2.90;;;;;;;18.25;38.51;99438.06;5092239;28;20012;-68
2021/11/28 03:43:55;;;;;;;5.50;2.70;;;;;;;18.25;38.39;99446.78;5091427;28;20115;-68
2021/11/28 03:46:20;;;;;;;4.53;2.55;;;;;;;18.23;38.17;99446.13;5092075;28;20467;-69
2021/11/28 03:48:45;;;;;;;5.50;2.72;;;;;;;18.24;38.36;99449.59;5091870;28;20026;-69
2021/11/28 03:51:11;;;;;;;4.88;2.97;;;;;;;18.23;38.08;99447.94;5091176;28;20051;-69
2021/11/28 03:53:36;;;;;;;4.80;2.80;;;;;;;18.21;38.32;99453.34;5091848;28;20120;-69
2021/11/28 03:56:06;;;;;;;4.85;3.17;;;;;;;18.21;38.23;99456.00;5094888;28;20115;-68
2021/11/28 03:58:31;;;;;;;4.57;3.00;;;;;;;18.21;38.38;99449.91;5094603;28;20024;-68
2021/11/28 04:00:57;;;;;;;4.90;2.92;;;;;;;18.22;38.30;99459.47;5095519;28;20038;-68
2021/11/28 04:03:23;;;;;;;4.45;2.85;;;;;;;18.21;38.60;99455.19;5095749;28;20116;-68
2021/11/28 04:05:48;;;;;;;4.40;2.80;;;;;;;18.21;38.27;99455.19;5095052;28;20507;-68
2021/11/28 04:08:14;;;;;;;5.15;2.80;;;;;;;18.21;38.73;99452.53;5096327;28;20110;-68
2021/11/28 04:10:39;;;;;;;4.40;2.88;;;;;;;18.20;38.65;99458.78;5098053;28;20487;-69
2021/11/28 04:13:04;;;;;;;4.68;2.83;;;;;;;18.21;38.60;99458.63;5094638;28;20119;-69
2021/11/28 04:15:31;;;;;;;4.85;2.90;;;;;;;18.22;38.56;99462.13;5098091;28;20052;-68
2021/11/28 04:17:56;;;;;;;6.00;3.20;;;;;;;18.21;38.60;99460.44;5095099;28;20024;-68
2021/11/28 04:20:21;;;;;;;5.60;3.42;;;;;;;18.22;38.55;99462.13;5095565;28;20024;-69
2021/11/28 04:22:47;;;;;;;4.72;2.88;;;;;;;18.22;38.30;99467.38;5095167;28;20028;-68
2021/11/28 04:25:13;;;;;;;4.63;3.00;;;;;;;18.22;38.52;99465.56;5094492;28;20024;-68
2021/11/28 04:27:39;;;;;;;4.93;2.92;;;;;;;18.23;38.10;99469.03;5095008;28;20127;-68
2021/11/28 04:30:06;;;;;;;4.63;3.00;;;;;;;18.21;38.56;99469.19;5094920;28;20242;-68
2021/11/28 04:32:31;;;;;;;4.95;2.88;;;;;;;18.22;38.30;99473.47;5094089;28;20404;-68
2021/11/28 04:34:57;;;;;;;5.13;2.83;;;;;;;18.23;38.90;99479.56;5094945;28;20113;-68
2021/11/28 04:37:23;;;;;;;5.20;2.95;;;;;;;18.22;38.55;99478.75;5095039;28;20060;-68
2021/11/28 04:39:49;;;;;;;4.45;2.83;;;;;;;18.23;38.70;99483.06;5094413;28;20055;-68
2021/11/28 04:42:14;;;;;;;5.63;3.67;;;;;;;18.24;38.61;99486.50;5094933;28;20360;-69
2021/11/28 04:44:39;;;;;;;4.60;2.70;;;;;;;18.25;38.75;99483.72;5094598;28;20051;-69
2021/11/28 04:47:04;;;;;;;5.07;3.20;;;;;;;18.25;38.68;99481.06;5094771;28;20511;-68
2021/11/28 04:49:30;;;;;;;4.57;3.08;;;;;;;18.26;38.40;99484.53;5094949;28;20032;-68
2021/11/28 04:51:55;;;;;;;5.57;3.38;;;;;;;18.26;38.35;99482.75;5094873;28;20056;-68
2021/11/28 04:54:21;;;;;;;4.95;3.28;;;;;;;18.25;38.46;99489.00;5094291;28;20022;-68
2021/11/28 04:56:46;;;;;;;5.18;3.20;;;;;;;18.25;38.32;99490.81;5094571;28;20555;-68
2021/11/28 04:59:11;;;;;;;5.07;2.70;;;;;;;18.24;38.76;99481.22;5094768;28;20072;-68
2021/11/28 05:01:37;;;;;;;4.72;2.90;;;;;;;18.25;38.19;99488.16;5093741;28;20268;-67
2021/11/28 05:04:03;;;;;;;5.47;2.92;;;;;;;18.24;38.22;99495.22;5094754;28;20024;-68
2021/11/28 05:06:28;;;;;;;5.20;2.95;;;;;;;18.25;38.53;99504.81;5093298;28;20020;-68
2021/11/28 05:08:54;;;;;;;5.00;3.35;;;;;;;18.25;38.78;99504.00;5093702;28;20076;-68
2021/11/28 05:11:20;;;;;;;5.20;2.85;;;;;;;18.24;38.61;99503.16;5094322;28;20189;-69
2021/11/28 05:13:45;;;;;;;4.68;3.00;;;;;;;18.25;38.64;99510.09;5093940;28;20036;-68
2021/11/28 05:16:10;;;;;;;5.32;3.10;;;;;;;18.24;38.35;99505.78;5093302;28;20102;-68
2021/11/28 05:18:36;;;;;;;5.25;3.13;;;;;;;18.24;38.41;99504.97;5094146;28;20035;-68
2021/11/28 05:21:01;;;;;;;4.90;3.22;;;;;;;18.26;38.33;99506.47;5094154;28;20124;-68
2021/11/28 05:23:26;;;;;;;4.90;3.05;;;;;;;18.24;38.24;99503.16;5093219;28;20024;-69
2021/11/28 05:25:52;;;;;;;5.07;2.92;;;;;;;18.26;38.01;99503.00;5094087;28;20121;-68
2021/11/28 05:28:17;;;;;;;5.00;2.95;;;;;;;18.25;38.35;99502.16;5093161;28;20059;-69
2021/11/28 05:30:43;;;;;;;4.68;3.00;;;;;;;18.25;38.39;99504.81;5093571;28;20384;-67
2021/11/28 05:33:08;;;;;;;4.75;2.97;;;;;;;18.25;38.39;99509.25;5094150;28;20052;-68
2021/11/28 05:35:34;;;;;;;4.85;3.10;;;;;;;18.25;38.13;99517.19;5093203;28;20035;-68
2021/11/28 05:38:00;;;;;;;4.70;3.10;;;;;;;18.25;38.35;99522.44;5094059;28;20414;-70
2021/11/28 05:40:25;;;;;;;5.53;3.22;;;;;;;18.24;38.17;99518.16;5093600;28;20123;-71
2021/11/28 05:42:53;;;;;;;5.10;2.97;;;;;;;18.25;38.56;99527.72;5093104;28;20020;-68
2021/11/28 05:45:20;;;;;;;4.82;3.13;;;;;;;18.24;38.40;99537.44;5093819;28;20494;-69
2021/11/28 05:47:47;;;;;;;5.05;3.08;;;;;;;18.24;38.26;99531.34;5093150;28;20034;-69
2021/11/28 05:50:12;;;;;;;5.28;3.10;;;;;;;18.25;38.55;99533.00;5092640;28;20107;-68
2021/11/28 05:52:37;;;;;;;4.78;3.38;;;;;;;18.25;38.41;99538.28;5092896;28;20441;-68
2021/11/28 05:55:04;;;;;;;5.32;3.13;;;;;;;18.25;38.37;99531.19;5093147;28;20069;-68
2021/11/28 05:57:30;;;;;;;5.03;3.30;;;;;;;18.25;38.55;99540.91;5092027;28;20211;-69
2021/11/28 05:59:55;;;;;;;5.05;3.40;;;;;;;18.25;38.08;99546.19;5093072;28;20115;-68
2021/11/28 06:02:20;;;;;;;4.80;2.95;;;;;;;18.25;38.09;99548.81;5093139;28;20459;-69
2021/11/28 06:04:46;;;;;;;5.30;2.72;;;;;;;18.25;38.77;99546.19;5092041;28;20024;-68
2021/11/28 06:07:11;;;;;;;4.75;2.85;;;;;;;18.24;39.26;99547.97;5092746;28;20080;-69
2021/11/28 06:09:36;;;;;;;4.68;2.90;;;;;;;18.25;39.78;99548.81;5092259;28;20054;-69
2021/11/28 06:12:02;;;;;;;4.32;2.38;;;;;;;18.24;39.82;99555.88;5091984;28;20028;-69
2021/11/28 06:14:27;;;;;;;5.00;2.65;;;;;;;18.26;39.81;99559.22;5092278;28;20471;-69
2021/11/28 06:16:52;;;;;;;5.35;2.63;;;;;;;18.27;39.82;99560.84;5092461;28;20066;-69
2021/11/28 06:19:18;;;;;;;3.60;2.17;;;;;;;18.29;39.55;99561.53;5091931;28;20016;-69
2021/11/28 06:21:43;;;;;;;3.78;2.20;;;;;;;18.31;40.10;99556.13;5092018;28;20046;-69
2021/11/28 06:24:09;;;;;;;3.75;2.33;;;;;;;18.31;40.03;99562.19;5092566;28;20028;-68
2021/11/28 06:26:34;;;;;;;4.38;2.55;;;;;;;18.34;39.70;99562.88;5091492;28;20032;-69
2021/11/28 06:28:59;;;;;;;3.70;2.00;;;;;;;18.34;39.65;99566.34;5092452;28;20043;-69
2021/11/28 06:31:24;;;;;;;4.32;2.30;;;;;;;18.34;39.90;99560.22;5092444;28;20391;-68
2021/11/28 06:33:50;;;;;;;3.80;2.30;;;;;;;18.37;39.74;99568.66;5091907;28;20525;-67
2021/11/28 06:36:15;;;;;;;4.68;2.42;;;;;;;18.40;40.12;99567.53;5092369;28;20073;-69
2021/11/28 06:38:41;;;;;;;4.18;2.25;;;;;;;18.39;39.80;99566.69;5091265;28;20028;-69
2021/11/28 06:41:07;;;;;;;3.85;2.15;;;;;;;18.41;39.94;99567.34;5092285;28;20093;-68
2021/11/28 06:43:32;;;;;;;3.95;2.28;;;;;;;18.41;39.90;99566.53;5091842;28;20492;-68
2021/11/28 06:45:57;;;;;;;4.40;2.47;;;;;;;18.41;39.86;99572.63;5091782;28;20103;-68
2021/11/28 06:48:23;;;;;;;3.45;1.75;;;;;;;18.44;39.85;99584.69;5092287;28;20488;-68
2021/11/28 06:50:49;;;;;;;4.20;2.22;;;;;;;18.45;39.95;99578.41;5092227;28;20054;-67
2021/11/28 06:53:16;;;;;;;4.03;2.17;;;;;;;18.47;39.89;99585.19;5091358;28;20070;-69
2021/11/28 06:55:42;;;;;;;4.15;2.10;;;;;;;18.48;39.73;99589.50;5091925;28;20032;-68
2021/11/28 06:58:07;;;;;;;3.63;2.08;;;;;;;18.49;39.72;99580.59;5091936;28;20032;-68
2021/11/28 07:00:33;;;;;;;4.28;2.30;;;;;;;18.51;39.77;99592.81;5091051;28;20068;-69
2021/11/28 07:02:58;;;;;;;4.50;2.40;;;;;;;18.51;40.04;99595.44;5092106;28;20024;-70
2021/11/28 07:05:23;;;;;;;3.50;2.00;;;;;;;18.52;39.72;99599.72;5091685;28;20017;-69
2021/11/28 07:07:51;;;;;;;4.07;2.20;;;;;;;18.49;40.02;99595.59;5091258;28;20024;-69
2021/11/28 07:10:17;;;;;;;3.33;1.80;;;;;;;18.53;39.94;99596.91;5091813;28;20086;-68
2021/11/28 07:12:43;;;;;;;3.47;1.77;;;;;;;18.54;40.10;99609.13;5091927;28;20481;-69
2021/11/28 07:15:09;;;;;;;3.70;2.05;;;;;;;18.55;39.93;99609.94;5090640;28;20510;-69
2021/11/28 07:17:35;;;;;;;3.75;2.15;;;;;;;18.56;39.91;99615.06;5091636;28;20107;-69
2021/11/28 07:20:00;;;;;;;4.75;2.42;;;;;;;18.57;39.89;99618.56;5091903;28;20337;-68
2021/11/28 07:22:25;;;;;;;3.80;2.05;;;;;;;18.57;39.78;99613.28;5091037;28;20103;-68
2021/11/28 07:24:53;;;;;;;3.72;2.00;;;;;;;18.57;39.75;99627.28;5091695;28;20089;-69
2021/11/28 07:27:19;;;;;;;4.68;2.33;;;;;;;18.58;39.84;99626.31;5091602;28;20024;-67
2021/11/28 07:29:45;;;;;;;3.85;2.20;;;;;;;18.57;39.91;99621.19;5091736;28;20127;-69
2021/11/28 07:32:10;;;;;;;4.60;2.15;;;;;;;18.59;40.13;99629.78;5096215;28;20115;-69
2021/11/28 07:34:36;;;;;;;3.70;1.90;;;;;;;18.58;40.15;99626.31;5095596;28;20486;-70
2021/11/28 07:37:01;;;;;;;3.97;2.00;;;;;;;18.60;39.77;99634.09;5095130;28;20085;-69
2021/11/28 07:39:26;;;;;;;3.63;2.03;;;;;;;18.61;39.87;99641.00;5095644;28;20028;-68
2021/11/28 07:41:55;;;;;;;4.60;2.50;;;;;;;18.61;39.66;99633.06;5095205;28;20027;-69
2021/11/28 07:44:21;;;;;;;4.10;2.15;;;;;;;18.62;40.06;99634.75;5095796;28;20357;-69
2021/11/28 07:46:46;;;;;;;4.07;1.95;;;;;;;18.62;39.82;99642.66;5095616;28;20039;-68
2021/11/28 07:49:12;;;;;;;3.45;1.90;;;;;;;18.62;39.93;99646.13;5095005;28;20082;-69
2021/11/28 07:51:38;;;;;;;3.45;2.00;;;;;;;18.65;40.07;99652.91;5095269;28;20032;-69
2021/11/28 07:54:06;;;;;;;4.38;2.08;;;;;;;18.65;40.22;99659.00;5095560;28;20040;-69
2021/11/28 07:56:31;;;;;;;3.93;2.00;;;;;;;18.65;39.83;99661.63;5094304;28;20546;-71
2021/11/28 07:59:00;;;;;;;3.40;1.83;;;;;;;18.66;39.77;99660.66;5095717;28;20051;-68
2021/11/28 08:01:25;;;;;;;5.13;2.88;;;;;;;18.68;38.62;99668.44;5095428;28;20085;-67
2021/11/28 08:03:50;;;;;;;5.07;3.53;;;;;;;18.65;39.01;99666.91;5094842;28;20028;-68
2021/11/28 08:06:16;;;;;;;5.43;2.80;;;;;;;18.66;39.62;99668.59;5095413;28;20023;-68
2021/11/28 08:08:41;;;;;;;4.82;2.58;;;;;;;18.66;39.16;99670.41;5094889;28;20024;-66
2021/11/28 08:11:06;;;;;;;4.13;2.38;;;;;;;18.74;39.11;99675.72;5094826;28;20046;-68
2021/11/28 08:13:32;;;;;;;4.63;2.03;;;;;;;18.87;39.21;99685.88;5095600;28;20020;-69
2021/11/28 08:15:58;;;;;;;3.95;2.08;;;;;;;18.95;39.33;99685.09;5095316;28;20506;-67
2021/11/28 08:18:23;;;;;;;3.90;1.90;;;;;;;18.94;39.05;99689.53;5094187;28;20032;-68
2021/11/28 08:20:48;;;;;;;6.72;4.70;;;;;;;18.91;37.96;99695.13;5095175;28;20044;-68
2021/11/28 08:23:14;;;;;;;7.80;4.27;;;;;;;18.86;38.46;99694.78;5094967;28;20398;-68
2021/11/28 08:25:39;;;;;;;5.20;2.92;;;;;;;18.83;39.29;99692.41;5093855;28;20277;-67
2021/11/28 08:28:08;;;;;;;3.92;2.20;;;;;;;18.81;39.57;99697.03;5095271;28;20032;-66
2021/11/28 08:30:34;;;;;;;4.47;2.40;;;;;;;18.81;39.45;99694.38;5094661;28;20059;-67
2021/11/28 08:33:00;;;;;;;4.50;2.97;;;;;;;18.80;39.44;99693.56;5094253;28;20044;-65
2021/11/28 08:35:25;;;;;;;4.07;2.22;;;;;;;18.82;39.28;99701.34;5095071;28;20020;-64
2021/11/28 08:37:50;;;;;;;3.75;2.40;;;;;;;18.83;39.63;99698.53;5094739;28;20496;-64
2021/11/28 08:40:18;;;;;;;5.20;3.10;;;;;;;18.82;38.74;99703.97;5093739;28;20120;-69
2021/11/28 08:42:44;;;;;;;7.00;4.75;;;;;;;18.87;38.98;99708.78;5094085;28;20034;-67
2021/11/28 08:45:10;;;;;;;4.78;3.08;;;;;;;19.00;38.91;99706.56;5094762;28;20036;-67
2021/11/28 08:47:36;;;;;;;5.63;3.20;;;;;;;19.13;38.41;99706.94;5094753;28;20028;-67
2021/11/28 08:50:05;;;;;;;7.05;3.70;;;;;;;19.26;38.64;99711.78;5095247;28;20488;-66
2021/11/28 08:52:30;;;;;;;5.00;2.78;;;;;;;19.37;38.21;99719.41;5093732;28;20070;-68
2021/11/28 08:54:55;;;;;;;4.23;2.60;;;;;;;19.47;37.97;99723.75;5096021;28;20036;-68
2021/11/28 08:57:21;;;;;;;4.60;2.88;;;;;;;19.56;38.08;99717.50;5095530;28;20266;-68
2021/11/28 08:59:47;;;;;;;6.20;2.65;;;;;;;19.63;37.99;99717.66;5097730;28;20036;-69
2021/11/28 09:02:22;;;;;;;5.53;2.85;;;;;;;19.70;37.87;99722.16;5098448;28;20459;-67
2021/11/28 09:04:47;;;;;;;5.10;2.65;;;;;;;19.77;37.52;99719.72;5095261;28;20047;-66
2021/11/28 09:07:13;;;;;;;4.78;2.97;;;;;;;19.82;37.57;99724.53;5094365;28;20387;-67
2021/11/28 09:09:39;;;;;;;5.10;3.20;;;;;;;19.85;37.62;99722.41;5094556;28;20036;-64
2021/11/28 09:12:05;;;;;;;5.15;3.20;;;;;;;19.89;37.41;99729.00;5094594;28;20027;-69
2021/11/28 09:14:31;;;;;;;6.13;3.08;;;;;;;19.91;37.19;99723.53;5094336;28;20035;-69
2021/11/28 09:16:56;;;;;;;5.65;3.60;;;;;;;19.92;37.33;99733.16;5095966;28;20036;-71
2021/11/28 09:19:43;;;;;;;6.03;3.53;;;;;;;19.93;37.34;99730.34;5095645;28;20376;-71
2021/11/28 09:22:10;;;;;;;5.60;3.50;;;;;;;19.93;37.33;99727.69;5094048;28;20100;-64
2021/11/28 09:24:36;;;;;;;5.20;3.42;;;;;;;19.89;37.40;99742.22;5093943;28;20040;-67
2021/11/28 09:27:14;;;;;;;10.75;3.75;;;;;;;19.78;37.46;99734.59;5093723;28;20035;-71
2021/11/28 09:29:46;;;;;;;5.70;3.42;;;;;;;19.69;37.62;99743.47;5092737;28;20068;-68
2021/11/28 09:32:16;;;;;;;6.68;3.20;;;;;;;19.61;37.58;99748.72;5093762;28;20024;-68
2021/11/28 09:34:42;;;;;;;5.65;3.70;;;;;;;19.51;37.63;99746.22;5092713;28;20543;-68
2021/11/28 09:37:08;;;;;;;6.57;3.60;;;;;;;19.46;38.12;99752.00;5093585;28;20031;-69
2021/11/28 09:39:33;;;;;;;5.78;3.67;;;;;;;19.40;38.03;99755.25;5093576;28;20028;-67
2021/11/28 09:42:05;;;;;;;5.55;3.70;;;;;;;19.34;38.18;99762.03;5093007;28;20036;-68
2021/11/28 09:44:33;;;;;;;5.38;3.50;;;;;;;19.28;38.30;99754.72;5093429;28;20113;-69
2021/11/28 09:46:59;;;;;;;5.32;3.60;;;;;;;19.26;38.52;99755.88;5093503;28;20077;-67
2021/11/28 09:49:27;;;;;;;6.40;3.58;;;;;;;19.24;38.21;99752.56;5092646;28;20020;-68
2021/11/28 09:51:55;;;;;;;6.00;3.65;;;;;;;19.21;38.34;99762.44;5093455;28;20123;-67
2021/11/28 09:54:21;;;;;;;5.68;3.45;;;;;;;19.18;38.34;99759.28;5093167;28;20066;-68
2021/11/28 09:56:46;;;;;;;6.03;3.30;;;;;;;19.16;38.52;99756.81;5092360;28;20054;-68
2021/11/28 09:59:13;;;;;;;5.45;3.50;;;;;;;19.13;38.71;99749.19;5093261;28;20361;-68
2021/11/28 10:01:39;;;;;;;7.32;3.53;;;;;;;19.13;38.41;99751.84;5093239;28;20055;-68
2021/11/28 10:04:05;;;;;;;5.50;3.35;;;;;;;19.11;38.53;99742.44;5092702;28;20031;-67
2021/11/28 10:06:31;;;;;;;5.63;3.53;;;;;;;19.09;38.89;99750.50;5093023;28;20020;-69
2021/11/28 10:08:57;;;;;;;6.97;3.78;;;;;;;19.09;38.53;99741.75;5093213;28;20024;-68
2021/11/28 10:12:15;;;;;;;5.38;3.50;;;;;;;19.07;38.87;99747.19;5092509;28;20445;-68
2021/11/28 10:14:48;;;;;;;4.60;3.10;;;;;;;19.06;38.70;99750.81;5085446;28;20047;-68
2021/11/28 10:17:16;;;;;;;4.90;3.40;;;;;;;19.05;38.77;99745.69;5092207;28;20468;-67
2021/11/28 10:19:42;;;;;;;6.32;3.55;;;;;;;19.04;38.42;99747.50;5092750;28;19995;-67
2021/11/28 10:22:08;;;;;;;5.28;3.42;;;;;;;19.02;38.25;99752.13;5092835;28;20048;-67
2021/11/28 10:24:33;;;;;;;5.22;3.30;;;;;;;19.02;38.51;99752.13;5091646;28;20047;-67
2021/11/28 10:27:09;;;;;;;6.03;3.10;;;;;;;19.01;38.64;99750.47;5092521;28;20031;-68
2021/11/28 10:29:41;;;;;;;5.82;3.50;;;;;;;18.98;38.61;99754.25;5092093;28;20032;-68
2021/11/28 10:32:09;;;;;;;5.22;3.10;;;;;;;18.97;38.82;99747.31;5091590;28;20502;-69
2021/11/28 10:34:40;;;;;;;5.78;3.50;;;;;;;18.97;38.32;99752.56;5092659;28;20035;-67
2021/11/28 10:37:17;;;;;;;5.75;3.50;;;;;;;18.95;38.43;99745.81;5092450;28;20127;-68
2021/11/28 10:39:50;;;;;;;5.82;3.80;;;;;;;18.96;38.69;99748.31;5091210;28;20111;-67
2021/11/28 10:42:20;;;;;;;5.70;3.40;;;;;;;18.96;38.41;99743.03;5093187;28;20051;-69
2021/11/28 10:45:17;;;;;;;6.72;3.70;;;;;;;19.01;38.24;99739.91;5096119;28;20027;-69
2021/11/28 10:47:45;;;;;;;5.47;3.72;;;;;;;19.09;38.36;99744.38;5095440;28;20097;-67
2021/11/28 10:50:22;;;;;;;6.78;3.75;;;;;;;19.18;38.09;99746.09;5094815;28;20493;-69
2021/11/28 10:52:51;;;;;;;5.93;3.90;;;;;;;19.29;38.01;99750.28;5094362;28;20040;-69
2021/11/28 10:55:27;;;;;;;5.40;3.72;;;;;;;19.35;38.05;99745.16;5095135;28;20040;-71
2021/11/28 10:58:07;;;;;;;5.53;3.35;;;;;;;19.45;37.97;99745.03;5095356;28;20032;-72
2021/11/28 11:00:37;;;;;;;5.40;3.33;;;;;;;19.52;37.91;99750.53;5094874;28;20035;-68
2021/11/28 11:03:19;;;;;;;5.05;3.20;;;;;;;19.56;37.82;99750.03;5094983;28;20084;-70
2021/11/28 11:05:46;;;;;;;5.25;3.00;;;;;;;19.60;37.86;99747.91;5094376;28;20024;-67
2021/11/28 11:08:15;;;;;;;5.45;3.30;;;;;;;19.63;37.74;99737.03;5095984;28;20039;-68
2021/11/28 11:10:42;;;;;;;4.57;2.92;;;;;;;19.68;37.75;99747.13;5096201;28;20468;-69
2021/11/28 11:13:12;;;;;;;5.93;3.13;;;;;;;19.72;37.79;99751.06;5096154;28;20055;-71
2021/11/28 11:15:44;;;;;;;5.80;2.97;;;;;;;19.76;37.40;99749.81;5096040;28;20479;-67
2021/11/28 11:18:11;;;;;;;5.15;3.38;;;;;;;19.79;37.39;99741.56;5096554;28;20027;-69
2021/11/28 11:20:39;;;;;;;5.07;3.03;;;;;;;19.82;37.59;99745.66;5095284;28;20032;-68
2021/11/28 11:23:42;;;;;;;5.35;3.05;;;;;;;19.83;37.52;99748.16;5095910;28;20020;-68
2021/11/28 11:26:27;;;;;;;4.30;2.70;;;;;;;19.88;37.29;99742.38;5096131;28;20168;-69
2021/11/28 11:29:06;;;;;;;5.18;2.83;;;;;;;19.87;37.50;99730.97;5095371;28;20036;-69
2021/11/28 11:31:32;;;;;;;6.15;4.45;;;;;;;19.91;36.01;99748.16;5095219;28;20429;-70
2021/11/28 11:33:57;;;;;;;9.00;4.93;;;;;;;19.85;36.30;99740.06;5095645;28;20164;-68
2021/11/28 11:37:02;;;;;;;5.72;2.92;;;;;;;19.87;37.33;99738.91;5095540;28;20020;-66
2021/11/28 11:39:31;;;;;;;6.28;2.45;;;;;;;19.94;37.42;99742.53;5095066;28;20036;-67